createdAt,value
2023-01-25T00:03:19.315Z,15.60
2023-01-25T00:07:24.756Z,14.10
2023-01-25T00:11:32.783Z,14.13
2023-01-25T00:15:37.511Z,13.90
2023-01-25T00:19:43.639Z,13.95
2023-01-25T00:23:52.458Z,18.60
2023-01-25T00:27:57.990Z,16.52
2023-01-25T00:32:11.570Z,19.95
2023-01-25T00:36:42.693Z,15.90
2023-01-25T00:40:50.361Z,17.90
2023-01-25T00:44:57.303Z,17.40
2023-01-25T00:49:04.594Z,17.77
2023-01-25T00:53:13.226Z,16.00
2023-01-25T00:57:20.869Z,17.92
2023-01-25T01:01:26.793Z,16.83
2023-01-25T01:05:34.218Z,17.95
2023-01-25T01:09:42.698Z,17.80
2023-01-25T01:13:51.947Z,16.85
2023-01-25T01:18:00.243Z,15.23
2023-01-25T01:22:07.730Z,15.13
2023-01-25T01:26:24.592Z,14.82
2023-01-25T01:34:36.759Z,14.95
2023-01-25T01:38:41.981Z,17.95
2023-01-25T01:43:10.107Z,18.13
2023-01-25T01:47:18.928Z,21.77
2023-01-25T01:51:29.549Z,19.05
2023-01-25T01:55:37.158Z,20.55
2023-01-25T01:59:46.236Z,16.33
2023-01-25T02:03:56.174Z,19.02
2023-01-25T02:08:02.899Z,17.30
2023-01-25T02:12:12.157Z,25.45
2023-01-25T02:16:21.057Z,11.13
2023-01-25T02:20:35.836Z,21.83
2023-01-25T02:24:48.993Z,14.88
2023-01-25T02:28:59.528Z,13.88
2023-01-25T02:33:05.579Z,26.45
2023-01-25T02:37:11.884Z,21.08
2023-01-25T02:41:26.799Z,17.58
2023-01-25T02:45:38.783Z,20.55
2023-01-25T02:49:43.837Z,22.05
2023-01-25T02:53:54.310Z,19.45
2023-01-25T02:58:08.891Z,22.30
2023-01-25T03:02:18.228Z,22.25
2023-01-25T03:06:23.850Z,18.25
2023-01-25T03:10:30.662Z,21.50
2023-01-25T03:14:38.901Z,21.75
2023-01-25T03:18:48.133Z,21.88
2023-01-25T03:22:53.227Z,18.85
2023-01-25T03:27:18.292Z,20.35
2023-01-25T03:31:24.664Z,20.52
2023-01-25T03:35:35.182Z,19.55
2023-01-25T03:39:42.885Z,18.27
2023-01-25T03:43:52.849Z,18.95
2023-01-25T03:47:57.074Z,16.58
2023-01-25T03:52:06.640Z,19.83
2023-01-25T03:56:18.307Z,18.17
2023-01-25T04:00:25.039Z,19.40
2023-01-25T04:04:32.714Z,12.90
2023-01-25T04:08:39.588Z,18.45
2023-01-25T04:12:44.571Z,16.55
2023-01-25T04:16:56.079Z,20.40
2023-01-25T04:21:02.867Z,21.65
2023-01-25T04:25:14.592Z,18.40
2023-01-25T04:29:23.695Z,16.20
2023-01-25T04:33:31.071Z,17.95
2023-01-25T04:37:36.410Z,17.92
2023-01-25T04:41:45.480Z,15.38
2023-01-25T04:45:53.081Z,16.48
2023-01-25T04:49:57.937Z,17.00
2023-01-25T04:54:03.858Z,17.70
2023-01-25T04:58:14.487Z,16.05
2023-01-25T05:02:19.661Z,15.63
2023-01-25T05:06:25.817Z,17.08
2023-01-25T05:10:31.581Z,16.33
2023-01-25T05:14:47.862Z,15.20
2023-01-25T05:18:54.934Z,10.88
2023-01-25T05:23:00.142Z,13.00
2023-01-25T05:27:11.447Z,11.57
2023-01-25T05:31:22.842Z,12.40
2023-01-25T05:35:30.740Z,11.80
2023-01-25T05:39:38.188Z,12.90
2023-01-25T05:43:47.132Z,10.57
2023-01-25T05:47:58.851Z,8.85
2023-01-25T05:52:03.473Z,9.35
2023-01-25T05:56:11.428Z,9.35
2023-01-25T06:00:18.285Z,10.20
2023-01-25T06:04:26.400Z,13.95
2023-01-25T06:08:32.730Z,10.07
2023-01-25T06:12:40.374Z,12.25
2023-01-25T06:16:58.216Z,8.32
2023-01-25T06:21:09.703Z,9.10
2023-01-25T06:25:15.983Z,8.50
2023-01-25T06:29:25.076Z,6.30
2023-01-25T06:33:36.505Z,9.90
2023-01-25T06:37:56.020Z,11.63
2023-01-25T06:42:01.443Z,11.98
2023-01-25T06:46:06.478Z,8.13
2023-01-25T06:50:16.637Z,9.02
2023-01-25T06:54:24.455Z,8.88
2023-01-25T06:58:31.069Z,7.95
2023-01-25T07:02:38.461Z,9.57
2023-01-25T07:06:44.472Z,9.65
2023-01-25T07:10:58.921Z,11.23
2023-01-25T07:15:08.802Z,12.48
2023-01-25T07:19:19.124Z,12.40
2023-01-25T07:23:25.020Z,13.07
2023-01-25T07:27:40.748Z,7.45
2023-01-25T07:31:54.476Z,10.00
2023-01-25T07:36:02.525Z,7.75
2023-01-25T07:40:12.563Z,8.82
2023-01-25T07:44:24.578Z,10.60
2023-01-25T07:48:36.149Z,8.70
2023-01-25T07:52:42.312Z,9.57
2023-01-25T07:56:45.029Z,7.03
2023-01-25T08:00:57.180Z,8.75
2023-01-25T08:05:04.880Z,6.72
2023-01-25T08:09:13.998Z,6.80
2023-01-25T08:13:21.031Z,7.80
2023-01-25T08:17:38.125Z,7.13
2023-01-25T08:21:42.932Z,7.95
2023-01-25T08:30:00.714Z,8.63
2023-01-25T08:34:08.451Z,7.10
2023-01-25T08:38:13.111Z,7.22
2023-01-25T08:42:21.519Z,6.70
2023-01-25T08:46:32.589Z,7.60
2023-01-25T08:50:36.986Z,7.32
2023-01-25T08:54:47.753Z,9.25
2023-01-25T08:58:58.891Z,6.68
2023-01-25T09:03:03.384Z,7.82
2023-01-25T09:07:16.199Z,10.00
2023-01-25T09:11:20.875Z,7.25
2023-01-25T09:15:23.954Z,9.57
2023-01-25T09:19:33.420Z,9.38
2023-01-25T09:23:50.600Z,10.18
2023-01-25T09:27:54.132Z,9.82
2023-01-25T09:32:02.567Z,9.00
2023-01-25T09:36:14.770Z,7.93
2023-01-25T09:40:32.444Z,10.82
2023-01-25T09:44:59.437Z,9.40
2023-01-25T09:49:14.977Z,11.35
2023-01-25T09:53:24.331Z,9.85
2023-01-25T09:57:32.577Z,9.82
2023-01-25T10:01:41.057Z,12.10
2023-01-25T10:05:45.948Z,11.60
2023-01-25T10:09:52.287Z,11.70
2023-01-25T10:14:01.212Z,11.32
2023-01-25T10:18:09.572Z,10.52
2023-01-25T10:22:22.559Z,12.70
2023-01-25T10:26:27.923Z,14.02
2023-01-25T10:30:44.723Z,15.27
2023-01-25T10:34:57.447Z,12.80
2023-01-25T10:39:03.500Z,14.25
2023-01-25T10:43:17.589Z,12.48
2023-01-25T10:47:32.490Z,11.55
2023-01-25T10:51:36.442Z,12.00
2023-01-25T10:56:22.273Z,12.35
2023-01-25T11:00:34.922Z,12.70
2023-01-25T11:04:43.611Z,16.48
2023-01-25T11:08:48.610Z,17.50
2023-01-25T11:13:04.837Z,14.10
2023-01-25T11:17:26.671Z,13.10
2023-01-25T11:21:41.769Z,14.07
2023-01-25T11:25:47.576Z,13.30
2023-01-25T11:30:11.274Z,12.68
2023-01-25T11:34:22.698Z,13.27
2023-01-25T11:38:33.310Z,13.73
2023-01-25T11:42:47.219Z,12.55
2023-01-25T11:47:01.582Z,13.15
2023-01-25T11:51:08.199Z,16.98
2023-01-25T11:55:24.769Z,14.23
2023-01-25T11:59:51.201Z,13.48
2023-01-25T12:04:37.686Z,13.30
2023-01-25T12:09:00.635Z,15.85
2023-01-25T12:13:15.717Z,14.43
2023-01-25T12:17:35.282Z,14.90
2023-01-25T12:22:04.253Z,13.50
2023-01-25T12:26:29.031Z,13.90
2023-01-25T12:30:44.821Z,16.40
2023-01-25T12:34:52.204Z,18.15
2023-01-25T12:39:02.146Z,17.77
2023-01-25T12:43:11.076Z,20.77
2023-01-25T12:47:22.591Z,19.33
2023-01-25T12:51:29.514Z,18.95
2023-01-25T12:55:32.443Z,17.80
2023-01-25T12:59:42.730Z,17.70
2023-01-25T13:04:04.187Z,19.08
2023-01-25T13:08:32.021Z,19.75
2023-01-25T13:12:56.992Z,18.35
2023-01-25T13:17:39.259Z,19.50
2023-01-25T13:25:52.215Z,18.35
2023-01-25T13:30:09.601Z,16.38
2023-01-25T13:34:54.378Z,20.48
2023-01-25T13:39:07.563Z,19.20
2023-01-25T13:43:24.435Z,23.70
2023-01-25T13:51:48.117Z,21.10
2023-01-25T13:55:58.323Z,24.25
2023-01-25T14:00:13.369Z,21.15
2023-01-25T14:04:19.048Z,21.95
2023-01-25T14:08:29.586Z,22.38
2023-01-25T14:12:42.325Z,17.90
2023-01-25T14:16:47.280Z,25.98
2023-01-25T14:20:56.257Z,21.60
2023-01-25T14:25:13.959Z,22.02
2023-01-25T14:29:32.437Z,20.48
2023-01-25T14:33:45.637Z,22.02
2023-01-25T14:37:55.394Z,20.50
2023-01-25T14:42:02.063Z,25.67
2023-01-25T14:50:42.251Z,25.30
2023-01-25T14:54:54.742Z,23.65
2023-01-25T14:59:16.466Z,19.83
2023-01-25T15:03:23.174Z,24.33
2023-01-25T15:08:03.232Z,23.58
2023-01-25T15:12:25.017Z,23.85
2023-01-25T15:16:43.135Z,27.85
2023-01-25T15:20:50.336Z,22.05
2023-01-25T15:25:12.632Z,20.98
2023-01-25T15:29:24.496Z,23.77
2023-01-25T15:33:34.730Z,22.92
2023-01-25T15:37:45.521Z,21.90
2023-01-25T15:42:01.170Z,24.17
2023-01-25T15:46:08.914Z,21.38
2023-01-25T15:50:21.690Z,22.48
2023-01-25T15:54:25.614Z,24.83
2023-01-25T15:58:39.654Z,27.75
2023-01-25T16:02:45.586Z,25.65
2023-01-25T16:06:52.411Z,26.90
2023-01-25T16:11:01.947Z,27.38
2023-01-25T16:15:14.972Z,25.02
2023-01-25T16:19:19.635Z,27.15
2023-01-25T16:23:31.227Z,25.27
2023-01-25T16:27:47.822Z,27.42
2023-01-25T16:32:00.280Z,24.65
2023-01-25T16:36:06.010Z,29.45
2023-01-25T16:40:30.831Z,27.10
2023-01-25T16:44:36.022Z,34.05
2023-01-25T16:48:53.378Z,32.92
2023-01-25T16:53:06.311Z,26.65
2023-01-25T16:57:20.800Z,29.73
2023-01-25T17:01:40.101Z,26.02
2023-01-25T17:06:01.547Z,29.83
2023-01-25T17:10:22.549Z,30.33
2023-01-25T17:14:34.269Z,26.02
2023-01-25T17:19:02.363Z,27.48
2023-01-25T17:23:21.531Z,26.58
2023-01-25T17:27:45.955Z,25.33
2023-01-25T17:32:04.553Z,21.08
2023-01-25T17:36:20.234Z,26.63
2023-01-25T17:40:30.138Z,25.50
2023-01-25T17:44:46.447Z,25.27
2023-01-25T17:48:59.647Z,15.10
2023-01-25T17:53:32.862Z,24.95
2023-01-25T17:57:56.437Z,21.92
2023-01-25T18:02:18.072Z,27.42
2023-01-25T18:06:38.934Z,21.73
2023-01-25T18:10:59.884Z,21.45
2023-01-25T18:15:25.575Z,26.40
2023-01-25T18:19:48.295Z,21.50
2023-01-25T18:24:03.638Z,21.33
2023-01-25T18:28:26.767Z,23.17
2023-01-25T18:32:33.998Z,24.30
2023-01-25T18:36:49.019Z,22.55
2023-01-25T18:41:03.058Z,22.35
2023-01-25T18:45:25.270Z,19.55
2023-01-25T18:49:36.509Z,19.27
2023-01-25T18:53:55.877Z,20.27
2023-01-25T18:58:09.966Z,19.92
2023-01-25T19:02:26.359Z,21.00
2023-01-25T19:07:08.910Z,22.58
2023-01-25T19:11:27.777Z,19.73
2023-01-25T19:15:49.872Z,19.08
2023-01-25T19:20:02.638Z,21.95
2023-01-25T19:24:27.027Z,18.08
2023-01-25T19:28:48.794Z,25.00
2023-01-25T19:32:51.918Z,24.27
2023-01-25T19:36:59.279Z,22.63
2023-01-25T19:41:19.863Z,21.40
2023-01-25T19:45:26.869Z,18.70
2023-01-25T19:49:31.954Z,17.85
2023-01-25T19:53:37.042Z,14.82
2023-01-25T19:57:53.007Z,19.38
2023-01-25T20:02:00.553Z,20.65
2023-01-25T20:06:07.277Z,22.15
2023-01-25T20:10:13.836Z,22.58
2023-01-25T20:14:26.366Z,19.35
2023-01-25T20:18:29.381Z,23.27
2023-01-25T20:22:38.384Z,22.00
2023-01-25T20:26:43.152Z,24.05
2023-01-25T20:30:52.016Z,21.85
2023-01-25T20:35:05.892Z,25.15
2023-01-25T20:39:10.239Z,25.70
2023-01-25T20:43:18.415Z,27.83
2023-01-25T20:47:23.743Z,24.33
2023-01-25T20:51:26.943Z,24.85
2023-01-25T20:55:30.683Z,23.40
2023-01-25T20:59:39.219Z,22.55
2023-01-25T21:03:49.535Z,36.47
2023-01-25T21:08:00.521Z,37.78
2023-01-25T21:12:11.368Z,26.70
2023-01-25T21:16:25.240Z,31.52
2023-01-25T21:20:40.503Z,31.90
2023-01-25T21:24:54.990Z,35.45
2023-01-25T21:28:59.556Z,35.72
2023-01-25T21:33:19.082Z,32.22
2023-01-25T21:37:28.671Z,41.83
2023-01-25T21:41:34.149Z,34.95
2023-01-25T21:46:00.176Z,46.55
2023-01-25T21:50:26.256Z,49.13
2023-01-25T21:54:33.298Z,40.72
2023-01-25T21:58:42.895Z,38.00
2023-01-25T22:02:54.273Z,34.42
2023-01-25T22:07:00.791Z,34.00
2023-01-25T22:11:25.423Z,52.78
2023-01-25T22:15:35.974Z,29.45
2023-01-25T22:19:47.053Z,30.33
2023-01-25T22:28:15.751Z,35.65
2023-01-25T22:32:33.655Z,32.17
2023-01-25T22:36:47.774Z,40.60
2023-01-25T22:40:59.861Z,41.78
2023-01-25T22:45:11.300Z,44.50
2023-01-25T22:49:22.830Z,29.08
2023-01-25T22:53:35.716Z,29.40
2023-01-25T22:57:51.316Z,41.40
2023-01-25T23:02:04.440Z,45.95
2023-01-25T23:06:19.475Z,27.90
2023-01-25T23:10:32.961Z,46.42
2023-01-25T23:15:02.384Z,34.45
2023-01-25T23:19:14.221Z,29.60
2023-01-25T23:23:24.124Z,32.85
2023-01-25T23:27:29.773Z,35.67
2023-01-25T23:31:34.175Z,33.60
2023-01-25T23:35:47.613Z,35.25
2023-01-25T23:39:58.607Z,37.78
2023-01-25T23:44:12.014Z,31.52
2023-01-25T23:48:20.574Z,30.05
2023-01-25T23:52:29.333Z,28.77
2023-01-25T23:56:33.021Z,32.75
